Time;durP1;ratioP1;P1;durP2;ratioP2;P2;SDS_P1;SDS_P2;PMS_P1;PMS_P2;Temp;Humidity;BMP_temperature;BMP_pressure;BME280_temperature;BME280_humidity;BME280_pressure;Samples;Min_cycle;Max_cycle;Signal;HPM_P1;HPM_P2
2023/06/30 00:01:48;;;;;;;7.25;2.13;;;15.60;99.90;;;;;;4963306;28;20043;-50
2023/06/30 00:04:18;;;;;;;7.63;2.67;;;15.50;99.90;;;;;;4939998;28;20047;-51
2023/06/30 00:06:49;;;;;;;13.93;2.45;;;15.50;99.90;;;;;;4956661;28;20046;-52
2023/06/30 00:09:19;;;;;;;10.75;2.70;;;15.50;99.90;;;;;;4940064;29;20043;-52
2023/06/30 00:11:46;;;;;;;8.23;2.65;;;15.40;99.90;;;;;;4960608;28;20047;-49
2023/06/30 00:14:11;;;;;;;11.43;2.55;;;15.40;99.90;;;;;;4956495;28;20110;-51
2023/06/30 00:16:37;;;;;;;9.70;2.38;;;15.40;99.90;;;;;;4956531;28;20031;-52
2023/06/30 00:19:04;;;;;;;8.23;2.08;;;15.40;99.90;;;;;;4956214;28;20039;-51
2023/06/30 00:21:30;;;;;;;8.75;2.58;;;15.40;99.90;;;;;;4955921;28;20099;-51
2023/06/30 00:24:01;;;;;;;10.15;2.60;;;15.40;99.90;;;;;;4955396;28;20696;-53
2023/06/30 00:26:28;;;;;;;9.13;2.30;;;15.30;99.90;;;;;;4956043;28;20380;-52
2023/06/30 00:28:54;;;;;;;8.02;2.15;;;15.20;99.90;;;;;;4954765;28;20122;-49
2023/06/30 00:31:20;;;;;;;11.07;2.60;;;15.20;99.90;;;;;;4956487;28;20043;-52
2023/06/30 00:33:46;;;;;;;11.95;2.58;;;15.20;99.90;;;;;;4954577;28;20039;-48
2023/06/30 00:36:12;;;;;;;8.07;2.28;;;15.10;99.90;;;;;;4955533;28;20041;-53
2023/06/30 00:38:37;;;;;;;9.98;2.40;;;15.10;99.90;;;;;;4974748;28;20121;-52
2023/06/30 00:41:04;;;;;;;6.70;2.22;;;15.10;99.90;;;;;;4926221;28;20039;-53
2023/06/30 00:43:30;;;;;;;9.30;2.47;;;15.10;99.90;;;;;;4957383;28;20070;-50
2023/06/30 00:45:56;;;;;;;7.53;2.78;;;15.00;99.90;;;;;;4963371;28;20066;-51
2023/06/30 00:48:22;;;;;;;9.13;2.22;;;15.00;99.90;;;;;;4958618;28;20043;-54
2023/06/30 00:50:47;;;;;;;6.97;2.15;;;15.00;99.90;;;;;;4955637;28;20067;-50
2023/06/30 00:53:15;;;;;;;8.57;2.53;;;14.90;99.90;;;;;;4955528;28;20376;-53
2023/06/30 00:55:41;;;;;;;9.80;2.80;;;14.90;99.90;;;;;;4955922;28;20494;-50
2023/06/30 00:58:06;;;;;;;11.25;2.63;;;14.90;99.90;;;;;;4955845;29;20039;-52
2023/06/30 01:00:32;;;;;;;5.47;2.30;;;14.90;99.90;;;;;;4955663;28;20475;-48
2023/06/30 01:03:11;;;;;;;8.57;2.13;;;14.90;99.90;;;;;;4969880;28;20035;-49
2023/06/30 01:05:51;;;;;;;8.13;2.25;;;14.90;99.90;;;;;;4975023;28;20074;-49
2023/06/30 01:08:34;;;;;;;12.25;2.45;;;14.80;99.90;;;;;;4958259;28;20047;-51
2023/06/30 01:11:01;;;;;;;8.10;2.03;;;14.80;99.90;;;;;;4967630;28;20047;-50
2023/06/30 01:13:28;;;;;;;11.70;2.63;;;14.80;99.90;;;;;;4960428;28;20042;-50
2023/06/30 01:15:56;;;;;;;10.30;2.30;;;14.70;99.90;;;;;;4937996;28;20043;-51
2023/06/30 01:18:24;;;;;;;5.75;1.95;;;14.70;99.90;;;;;;4964727;28;20038;-49
2023/06/30 01:20:51;;;;;;;9.60;2.20;;;14.60;99.90;;;;;;4974225;28;20035;-51
2023/06/30 01:23:28;;;;;;;8.55;2.28;;;14.70;99.90;;;;;;4973562;28;20121;-53
2023/06/30 01:25:55;;;;;;;8.32;2.03;;;14.70;99.90;;;;;;4972806;28;20046;-53
2023/06/30 01:28:21;;;;;;;7.32;2.25;;;14.60;99.90;;;;;;4966065;28;20047;-52
2023/06/30 01:30:47;;;;;;;5.65;2.17;;;14.70;99.90;;;;;;4974218;28;20039;-53
2023/06/30 01:33:14;;;;;;;10.35;2.22;;;14.60;99.90;;;;;;4967403;28;20028;-48
2023/06/30 01:35:39;;;;;;;9.65;1.92;;;14.60;99.90;;;;;;4937538;28;20044;-54
2023/06/30 01:38:05;;;;;;;6.30;2.00;;;14.60;99.90;;;;;;4970932;28;20092;-50
2023/06/30 01:40:32;;;;;;;11.70;2.40;;;14.60;99.90;;;;;;4939012;29;20047;-53
2023/06/30 01:42:58;;;;;;;7.70;2.20;;;14.60;99.90;;;;;;4966996;28;20039;-51
2023/06/30 01:45:25;;;;;;;5.85;1.60;;;14.60;99.90;;;;;;4964361;28;20075;-48
2023/06/30 01:47:52;;;;;;;7.15;2.05;;;14.50;99.90;;;;;;4966721;28;20043;-51
2023/06/30 01:50:20;;;;;;;8.77;2.35;;;14.50;99.90;;;;;;4959296;28;20074;-48
2023/06/30 01:52:46;;;;;;;8.50;2.15;;;14.50;99.90;;;;;;4960882;28;20059;-51
2023/06/30 01:55:12;;;;;;;7.18;2.10;;;14.40;99.90;;;;;;4970467;28;20467;-53
2023/06/30 01:57:37;;;;;;;8.85;2.85;;;14.40;99.90;;;;;;4960480;28;20047;-53
2023/06/30 02:00:05;;;;;;;9.52;2.22;;;14.40;99.90;;;;;;4973414;28;20039;-52
2023/06/30 02:02:31;;;;;;;6.57;2.30;;;14.30;99.90;;;;;;4973727;28;20369;-51
2023/06/30 02:04:57;;;;;;;7.53;2.30;;;14.30;99.90;;;;;;4955625;28;20110;-52
2023/06/30 02:07:23;;;;;;;8.20;2.10;;;14.30;99.90;;;;;;4971832;28;20129;-53
2023/06/30 02:09:49;;;;;;;7.35;2.70;;;14.20;99.90;;;;;;4963380;28;20051;-52
2023/06/30 02:12:15;;;;;;;7.80;2.75;;;14.20;99.90;;;;;;4954104;28;20047;-54
2023/06/30 02:14:41;;;;;;;8.23;2.72;;;14.20;99.90;;;;;;4965777;28;20047;-51
2023/06/30 02:17:13;;;;;;;8.07;2.97;;;14.20;99.90;;;;;;4973412;28;20030;-51
2023/06/30 02:19:38;;;;;;;7.93;2.72;;;14.20;99.90;;;;;;4937720;29;20047;-48
2023/06/30 02:22:05;;;;;;;8.80;2.30;;;14.10;99.90;;;;;;4959534;28;20039;-53
2023/06/30 02:24:30;;;;;;;5.38;2.88;;;14.10;99.90;;;;;;4971222;28;20061;-51
2023/06/30 02:26:56;;;;;;;8.95;3.08;;;14.10;99.90;;;;;;4960825;28;20038;-50
2023/06/30 02:29:22;;;;;;;5.88;2.75;;;14.10;99.90;;;;;;4967171;28;20373;-51
2023/06/30 02:31:47;;;;;;;5.88;2.63;;;14.00;99.90;;;;;;4953791;28;20498;-50
2023/06/30 02:34:13;;;;;;;8.68;2.80;;;14.00;99.90;;;;;;4953756;28;20047;-51
2023/06/30 02:36:39;;;;;;;5.38;2.63;;;14.00;99.90;;;;;;4956148;28;20035;-53
2023/06/30 02:39:04;;;;;;;8.85;2.60;;;13.90;99.90;;;;;;4936590;28;20485;-49
2023/06/30 02:41:30;;;;;;;9.68;2.72;;;13.90;99.90;;;;;;4953587;28;20042;-52
2023/06/30 02:43:56;;;;;;;8.35;2.63;;;13.90;99.90;;;;;;4953560;28;20156;-53
2023/06/30 02:46:21;;;;;;;8.55;1.92;;;13.90;99.90;;;;;;4961804;28;20402;-52
2023/06/30 02:48:47;;;;;;;9.55;3.25;;;13.80;99.90;;;;;;4970034;28;20828;-49
2023/06/30 02:51:13;;;;;;;7.65;2.50;;;13.70;99.90;;;;;;4972530;28;20034;-50
2023/06/30 02:53:38;;;;;;;8.05;3.10;;;13.70;99.90;;;;;;4937759;28;20039;-51
2023/06/30 02:56:04;;;;;;;6.53;2.70;;;13.70;99.90;;;;;;4968350;28;20039;-52
2023/06/30 02:58:30;;;;;;;6.57;2.58;;;13.70;99.90;;;;;;4963783;28;20039;-48
2023/06/30 03:00:56;;;;;;;3.78;1.88;;;13.60;99.90;;;;;;4953155;28;20050;-53
2023/06/30 03:03:22;;;;;;;6.15;2.30;;;13.60;99.90;;;;;;4968601;28;20042;-50
2023/06/30 03:05:48;;;;;;;6.95;2.58;;;13.60;99.90;;;;;;4972410;28;20038;-53
2023/06/30 03:08:13;;;;;;;5.40;2.10;;;13.60;99.90;;;;;;4962491;28;20046;-48
2023/06/30 03:10:39;;;;;;;4.93;1.98;;;13.50;99.90;;;;;;4952888;28;20093;-54
2023/06/30 03:13:05;;;;;;;6.68;2.17;;;13.60;99.90;;;;;;4951836;28;20039;-52
2023/06/30 03:15:30;;;;;;;6.60;2.15;;;13.50;99.90;;;;;;4953230;28;20046;-49
2023/06/30 03:17:56;;;;;;;7.97;2.42;;;13.50;99.90;;;;;;4952212;28;20399;-50
2023/06/30 03:20:23;;;;;;;6.70;2.45;;;13.40;99.90;;;;;;4952828;28;20367;-50
2023/06/30 03:22:49;;;;;;;5.85;1.98;;;13.40;99.90;;;;;;4934933;28;20039;-49
2023/06/30 03:25:14;;;;;;;4.82;2.35;;;13.40;99.90;;;;;;4953917;28;20035;-52
2023/06/30 03:27:40;;;;;;;8.48;2.10;;;13.30;99.90;;;;;;4935736;28;20058;-51
2023/06/30 03:30:06;;;;;;;4.55;2.28;;;13.30;99.90;;;;;;4934943;28;20047;-49
2023/06/30 03:32:32;;;;;;;8.55;2.72;;;13.30;99.90;;;;;;4952705;28;20042;-51
2023/06/30 03:35:00;;;;;;;7.25;2.75;;;13.30;99.90;;;;;;4964090;28;20034;-51
2023/06/30 03:37:26;;;;;;;7.30;2.95;;;13.30;99.90;;;;;;4962669;28;20534;-50
2023/06/30 03:39:51;;;;;;;6.00;2.40;;;13.20;99.90;;;;;;4952366;28;20035;-52
2023/06/30 03:42:17;;;;;;;6.60;2.88;;;13.20;99.90;;;;;;4962275;28;20513;-50
2023/06/30 03:44:43;;;;;;;9.75;2.92;;;13.20;99.90;;;;;;4935335;28;20047;-53
2023/06/30 03:47:09;;;;;;;9.40;3.05;;;13.20;99.90;;;;;;4952785;28;20054;-51
2023/06/30 03:49:34;;;;;;;6.90;2.90;;;13.10;99.90;;;;;;4968789;28;20126;-49
2023/06/30 03:52:00;;;;;;;7.65;2.90;;;13.10;99.90;;;;;;4958235;28;20059;-50
2023/06/30 03:54:25;;;;;;;8.13;3.10;;;13.00;99.90;;;;;;4955556;28;20087;-53
2023/06/30 03:56:51;;;;;;;7.18;2.72;;;13.00;99.90;;;;;;4971976;28;20122;-53
2023/06/30 03:59:17;;;;;;;7.20;2.88;;;13.00;99.90;;;;;;4961421;28;20077;-49
2023/06/30 04:01:42;;;;;;;6.75;2.90;;;13.00;99.90;;;;;;4955163;28;20099;-49
2023/06/30 04:04:08;;;;;;;8.25;2.95;;;13.00;99.90;;;;;;4960464;28;20126;-51
2023/06/30 04:06:36;;;;;;;6.85;2.90;;;13.00;99.90;;;;;;4961857;28;20036;-51
2023/06/30 04:09:02;;;;;;;9.05;2.90;;;13.00;99.90;;;;;;4936095;28;20047;-50
2023/06/30 04:11:28;;;;;;;7.60;3.30;;;13.00;99.90;;;;;;4935423;28;20048;-53
2023/06/30 04:13:54;;;;;;;7.70;3.20;;;13.00;99.90;;;;;;4952691;28;20082;-51
2023/06/30 04:16:20;;;;;;;7.82;3.60;;;13.00;99.90;;;;;;4935282;28;20397;-50
2023/06/30 04:18:45;;;;;;;7.57;3.40;;;13.00;99.90;;;;;;4961503;28;20066;-49
2023/06/30 04:21:11;;;;;;;7.88;3.00;;;13.00;99.90;;;;;;4952953;28;20083;-50
2023/06/30 04:23:37;;;;;;;9.68;3.35;;;13.00;99.90;;;;;;4964254;28;20046;-48
2023/06/30 04:26:04;;;;;;;11.60;2.20;;;13.10;99.90;;;;;;4970643;28;20031;-49
2023/06/30 04:28:30;;;;;;;8.80;3.33;;;13.00;99.90;;;;;;4940071;28;20043;-47
2023/06/30 04:30:58;;;;;;;6.80;3.05;;;13.10;99.90;;;;;;4969148;28;20486;-49
2023/06/30 04:33:24;;;;;;;7.82;3.65;;;13.10;99.90;;;;;;4971166;28;20413;-51
2023/06/30 04:35:50;;;;;;;10.05;3.97;;;13.10;99.90;;;;;;4963839;28;20042;-53
2023/06/30 04:38:19;;;;;;;7.78;2.80;;;13.20;99.90;;;;;;4960359;28;20470;-51
2023/06/30 04:40:46;;;;;;;9.00;3.30;;;13.20;99.90;;;;;;4955835;28;20039;-51
2023/06/30 04:43:12;;;;;;;8.02;3.13;;;13.20;99.90;;;;;;4938483;28;20083;-52
2023/06/30 04:45:41;;;;;;;10.52;3.75;;;13.30;99.90;;;;;;4955052;28;20090;-49
2023/06/30 04:48:07;;;;;;;8.25;2.88;;;13.20;99.90;;;;;;4971842;28;20058;-51
2023/06/30 04:50:34;;;;;;;10.23;4.00;;;13.30;99.90;;;;;;4955615;28;20039;-50
2023/06/30 04:53:00;;;;;;;9.52;4.20;;;13.30;99.90;;;;;;4954717;28;20055;-49
2023/06/30 04:55:25;;;;;;;11.05;4.40;;;13.30;99.90;;;;;;4955589;28;20043;-48
2023/06/30 04:57:53;;;;;;;9.07;3.45;;;13.30;99.90;;;;;;4955482;28;20072;-51
2023/06/30 05:00:19;;;;;;;6.28;2.72;;;13.40;99.90;;;;;;4955166;28;20039;-46
2023/06/30 05:02:45;;;;;;;10.57;3.17;;;13.40;99.90;;;;;;4955412;28;20058;-51
2023/06/30 05:05:12;;;;;;;7.65;3.67;;;13.40;99.90;;;;;;4959607;28;20035;-51
2023/06/30 05:07:38;;;;;;;7.85;4.05;;;13.50;99.90;;;;;;4974636;28;20593;-52
2023/06/30 05:10:04;;;;;;;9.60;3.75;;;13.50;99.90;;;;;;4961535;28;20114;-49
2023/06/30 05:12:29;;;;;;;8.93;4.50;;;13.50;99.90;;;;;;4971994;28;20035;-50
2023/06/30 05:14:55;;;;;;;12.48;4.13;;;13.60;99.90;;;;;;4973850;28;20043;-50
2023/06/30 05:17:20;;;;;;;9.30;3.95;;;13.60;99.90;;;;;;4958242;28;20041;-52
2023/06/30 05:19:46;;;;;;;6.97;4.00;;;13.70;99.90;;;;;;4973998;28;20035;-49
2023/06/30 05:22:12;;;;;;;9.93;3.20;;;13.80;99.90;;;;;;4970232;28;20082;-49
2023/06/30 05:24:37;;;;;;;11.07;4.47;;;13.80;99.90;;;;;;4972100;28;20102;-48
2023/06/30 05:27:03;;;;;;;12.48;4.75;;;13.80;99.90;;;;;;4970756;28;20045;-49
2023/06/30 05:29:33;;;;;;;10.68;4.57;;;13.90;99.90;;;;;;4954771;28;20082;-52
2023/06/30 05:31:59;;;;;;;9.80;4.93;;;14.00;99.90;;;;;;4954358;28;20102;-50
2023/06/30 05:34:25;;;;;;;8.70;4.50;;;14.00;99.90;;;;;;4936242;28;20047;-48
2023/06/30 05:36:51;;;;;;;11.85;4.20;;;14.10;99.90;;;;;;4936197;28;20035;-46
2023/06/30 05:39:17;;;;;;;11.10;4.63;;;14.20;99.90;;;;;;4973982;28;20163;-48
2023/06/30 05:41:43;;;;;;;12.27;4.05;;;14.40;99.90;;;;;;4961848;28;20054;-50
2023/06/30 05:44:09;;;;;;;11.52;3.97;;;14.40;99.90;;;;;;4967068;28;20483;-46
2023/06/30 05:46:37;;;;;;;9.05;3.75;;;14.50;99.90;;;;;;4971174;28;20554;-50
2023/06/30 05:49:05;;;;;;;9.25;3.53;;;14.60;99.90;;;;;;4966059;28;20038;-49
2023/06/30 05:51:35;;;;;;;7.13;2.20;;;14.80;99.90;;;;;;4966061;28;20066;-50
2023/06/30 05:54:02;;;;;;;7.75;2.15;;;14.90;99.90;;;;;;4936946;28;20050;-50
2023/06/30 05:56:28;;;;;;;9.60;2.20;;;15.00;99.90;;;;;;4954385;28;20415;-48
2023/06/30 05:58:54;;;;;;;9.63;2.97;;;15.10;99.90;;;;;;4959585;28;20467;-48
2023/06/30 06:01:20;;;;;;;6.85;1.63;;;15.30;99.90;;;;;;4937187;28;20042;-49
2023/06/30 06:03:47;;;;;;;7.20;1.98;;;15.40;99.90;;;;;;4956085;28;20043;-51
2023/06/30 06:06:13;;;;;;;14.75;2.33;;;15.50;99.90;;;;;;4937318;28;20039;-52
2023/06/30 06:08:46;;;;;;;5.85;1.90;;;15.60;99.90;;;;;;4963130;28;20051;-51
2023/06/30 06:11:13;;;;;;;8.02;1.50;;;15.70;99.90;;;;;;4963469;28;20047;-53
2023/06/30 06:13:39;;;;;;;7.28;1.50;;;15.80;99.90;;;;;;4955389;28;20051;-48
2023/06/30 06:16:06;;;;;;;5.93;1.52;;;15.80;99.90;;;;;;4965604;28;20482;-54
2023/06/30 06:18:33;;;;;;;10.50;1.90;;;16.00;99.90;;;;;;4962230;28;20059;-49
2023/06/30 06:20:59;;;;;;;7.10;1.10;;;16.00;99.90;;;;;;4953616;28;20031;-48
2023/06/30 06:23:25;;;;;;;7.63;1.60;;;16.10;99.90;;;;;;4960078;28;20043;-48
2023/06/30 06:25:51;;;;;;;6.10;1.50;;;16.10;99.90;;;;;;4972875;28;20501;-51
2023/06/30 06:28:17;;;;;;;8.70;1.70;;;16.10;99.90;;;;;;4970073;28;20159;-49
2023/06/30 06:30:44;;;;;;;6.93;1.45;;;16.20;99.90;;;;;;4936671;28;20102;-50
2023/06/30 06:33:10;;;;;;;6.15;1.63;;;16.20;99.90;;;;;;4936351;28;20098;-51
2023/06/30 06:35:35;;;;;;;7.45;2.05;;;16.20;99.90;;;;;;4953853;28;20035;-50
2023/06/30 06:38:01;;;;;;;5.47;1.40;;;16.30;99.90;;;;;;4962636;28;20034;-52
2023/06/30 06:40:30;;;;;;;5.20;1.40;;;16.30;99.90;;;;;;4956161;28;20035;-52
2023/06/30 06:42:56;;;;;;;5.32;1.30;;;16.40;99.90;;;;;;4944049;28;20031;-49
2023/06/30 06:45:23;;;;;;;7.50;1.50;;;16.50;99.90;;;;;;4943667;28;20047;-52
2023/06/30 06:48:19;;;;;;;8.82;1.67;;;16.40;99.90;;;;;;4944786;28;20558;-52
2023/06/30 06:50:47;;;;;;;8.38;1.75;;;16.40;99.90;;;;;;4945252;28;20075;-48
2023/06/30 06:53:21;;;;;;;5.55;1.73;;;16.40;99.90;;;;;;4943945;28;20091;-47
2023/06/30 06:55:51;;;;;;;35.88;5.20;;;16.40;99.90;;;;;;4926697;28;20047;-49
2023/06/30 06:58:17;;;;;;;24.52;4.32;;;16.50;99.90;;;;;;4942877;28;20106;-48
2023/06/30 07:00:47;;;;;;;8.88;1.90;;;16.60;99.90;;;;;;4943889;28;20035;-49
2023/06/30 07:03:13;;;;;;;5.60;1.58;;;16.60;99.90;;;;;;4943901;28;20051;-52
2023/06/30 07:05:40;;;;;;;7.32;1.75;;;16.70;99.90;;;;;;4943929;28;20051;-51
2023/06/30 07:08:09;;;;;;;5.40;1.50;;;16.70;99.90;;;;;;4942126;28;20035;-51
2023/06/30 07:10:35;;;;;;;5.18;1.20;;;16.70;99.90;;;;;;4945018;28;20047;-51
2023/06/30 07:13:02;;;;;;;7.30;1.50;;;16.80;99.90;;;;;;4944268;28;20046;-53
2023/06/30 07:15:28;;;;;;;7.45;1.60;;;16.80;99.90;;;;;;4945293;28;20039;-51
2023/06/30 07:17:54;;;;;;;5.68;1.45;;;16.90;99.90;;;;;;4943093;28;20040;-51
2023/06/30 07:20:19;;;;;;;6.40;1.85;;;16.90;99.90;;;;;;4944767;28;20045;-52
2023/06/30 07:22:46;;;;;;;11.05;1.92;;;16.90;99.90;;;;;;4950547;28;20482;-48
2023/06/30 07:25:11;;;;;;;20.60;2.67;;;17.00;99.90;;;;;;4934131;28;20470;-49
2023/06/30 07:27:38;;;;;;;5.03;1.17;;;17.00;99.90;;;;;;4950572;28;20129;-48
2023/06/30 07:30:06;;;;;;;5.63;1.23;;;17.00;99.90;;;;;;4968196;28;20039;-50
2023/06/30 07:32:33;;;;;;;6.80;1.75;;;17.00;99.90;;;;;;4956297;28;20035;-50
2023/06/30 07:35:01;;;;;;;5.28;1.52;;;17.10;99.90;;;;;;4952487;28;20070;-48
2023/06/30 07:37:27;;;;;;;4.28;0.98;;;17.00;99.90;;;;;;4935327;28;20110;-48
2023/06/30 07:39:52;;;;;;;5.32;1.33;;;17.10;99.90;;;;;;4955516;28;20039;-50
2023/06/30 07:42:18;;;;;;;5.47;1.40;;;17.10;99.90;;;;;;4938517;28;20039;-48
2023/06/30 07:44:44;;;;;;;6.63;1.70;;;17.20;99.90;;;;;;4967908;28;20047;-49
2023/06/30 07:47:10;;;;;;;7.32;1.30;;;17.10;99.90;;;;;;4935575;28;20046;-51
2023/06/30 07:49:36;;;;;;;6.28;1.30;;;17.10;99.90;;;;;;4935664;28;20039;-50
2023/06/30 07:52:01;;;;;;;4.90;1.10;;;17.00;99.90;;;;;;4918713;28;20125;-51
2023/06/30 07:54:27;;;;;;;6.32;1.25;;;17.10;99.90;;;;;;4952836;28;20483;-51
2023/06/30 07:56:53;;;;;;;6.85;1.17;;;17.20;99.90;;;;;;4938433;28;20078;-49
2023/06/30 07:59:18;;;;;;;3.63;1.20;;;17.40;99.90;;;;;;4964062;28;20062;-49
2023/06/30 08:01:44;;;;;;;6.18;1.80;;;17.50;99.90;;;;;;4973445;28;20097;-48
2023/06/30 08:04:11;;;;;;;5.20;1.38;;;17.70;99.90;;;;;;4975347;28;20042;-50
2023/06/30 08:06:36;;;;;;;6.32;1.30;;;17.80;99.90;;;;;;4975571;28;20054;-47
2023/06/30 08:09:02;;;;;;;5.35;1.13;;;17.90;99.90;;;;;;4964723;28;20395;-50
2023/06/30 08:11:29;;;;;;;15.10;1.70;;;18.00;99.90;;;;;;4972677;28;20537;-47
2023/06/30 08:13:56;;;;;;;9.20;1.45;;;18.10;99.90;;;;;;4938946;28;20051;-51
2023/06/30 08:16:21;;;;;;;24.27;3.67;;;18.30;99.90;;;;;;4956120;28;20677;-49
2023/06/30 08:18:48;;;;;;;16.60;3.28;;;18.40;99.90;;;;;;4962943;28;20146;-51
2023/06/30 08:21:14;;;;;;;5.22;1.33;;;18.50;99.90;;;;;;4974985;28;20030;-52
2023/06/30 08:23:39;;;;;;;8.77;1.63;;;18.60;99.90;;;;;;4959736;28;20075;-49
2023/06/30 08:26:05;;;;;;;5.82;1.30;;;18.60;99.90;;;;;;4964048;28;20046;-48
2023/06/30 08:28:30;;;;;;;6.10;1.35;;;18.60;99.90;;;;;;4961217;28;20118;-49
2023/06/30 08:30:56;;;;;;;6.63;1.77;;;18.50;99.90;;;;;;4955869;28;20083;-52
2023/06/30 08:33:27;;;;;;;5.72;1.40;;;18.60;99.90;;;;;;4955627;28;20039;-50
2023/06/30 08:35:52;;;;;;;4.88;1.20;;;18.60;99.90;;;;;;4960088;28;20043;-51
2023/06/30 08:38:18;;;;;;;5.72;1.20;;;18.70;99.90;;;;;;4965053;28;20050;-50
2023/06/30 08:40:44;;;;;;;8.38;1.58;;;18.80;99.90;;;;;;4965203;28;20061;-50
2023/06/30 08:43:12;;;;;;;6.00;1.60;;;18.80;99.90;;;;;;4970361;28;20043;-50
2023/06/30 08:45:45;;;;;;;8.75;1.60;;;18.80;99.90;;;;;;4959610;28;20062;-52
2023/06/30 08:48:12;;;;;;;4.72;1.10;;;18.70;99.90;;;;;;4955360;28;20043;-50
2023/06/30 08:50:39;;;;;;;4.65;1.20;;;18.80;99.90;;;;;;4956837;28;20291;-51
2023/06/30 08:53:04;;;;;;;4.75;1.30;;;18.90;99.90;;;;;;4954912;28;20107;-51
2023/06/30 08:55:30;;;;;;;7.70;1.50;;;18.90;99.90;;;;;;4974019;28;20039;-51
2023/06/30 08:57:57;;;;;;;8.70;1.77;;;19.00;99.90;;;;;;4964145;28;20031;-48
2023/06/30 09:00:24;;;;;;;5.45;1.20;;;19.10;99.90;;;;;;4959873;28;20047;-50
2023/06/30 09:02:51;;;;;;;8.00;1.52;;;19.00;99.90;;;;;;4955365;28;20395;-48
2023/06/30 09:05:17;;;;;;;7.05;1.10;;;19.00;99.90;;;;;;4972761;28;20053;-50
2023/06/30 09:07:50;;;;;;;4.28;1.10;;;19.00;99.90;;;;;;4955457;28;20042;-48
2023/06/30 09:10:16;;;;;;;3.63;1.00;;;19.10;99.90;;;;;;4955250;28;20489;-48
2023/06/30 09:12:46;;;;;;;7.63;1.30;;;19.20;99.90;;;;;;4954656;28;20044;-52
2023/06/30 09:15:17;;;;;;;4.05;1.10;;;19.40;99.90;;;;;;4955216;28;20046;-50
2023/06/30 09:17:43;;;;;;;4.95;1.08;;;19.60;99.90;;;;;;4967033;28;20050;-51
2023/06/30 09:20:11;;;;;;;5.40;1.23;;;19.70;99.90;;;;;;4959251;28;20039;-48
2023/06/30 09:22:40;;;;;;;4.32;1.33;;;19.70;99.90;;;;;;4954060;28;20047;-48
2023/06/30 09:25:07;;;;;;;4.65;1.17;;;19.80;99.90;;;;;;4954907;28;20411;-50
2023/06/30 09:27:36;;;;;;;5.10;1.08;;;20.00;99.90;;;;;;4954620;28;20047;-52
2023/06/30 09:30:01;;;;;;;5.65;1.10;;;20.30;99.90;;;;;;4937364;28;20043;-52
2023/06/30 09:32:32;;;;;;;3.45;1.10;;;20.30;99.90;;;;;;4954179;28;20455;-53
2023/06/30 09:35:07;;;;;;;5.40;1.40;;;20.50;99.90;;;;;;4937590;28;20455;-52
2023/06/30 09:37:43;;;;;;;5.45;1.17;;;20.60;99.90;;;;;;4931446;28;20062;-51
2023/06/30 09:40:14;;;;;;;4.43;1.50;;;20.70;99.90;;;;;;4953213;28;20075;-50
2023/06/30 09:42:41;;;;;;;4.03;1.00;;;20.80;99.90;;;;;;4958876;28;20090;-51
2023/06/30 09:45:07;;;;;;;3.92;0.90;;;20.90;99.90;;;;;;4937624;28;20133;-52
2023/06/30 09:47:32;;;;;;;5.15;1.50;;;20.90;99.90;;;;;;4955071;28;20042;-52
2023/06/30 09:49:58;;;;;;;4.55;1.10;;;21.00;99.90;;;;;;4954076;28;20530;-49
2023/06/30 09:52:25;;;;;;;4.22;1.10;;;21.20;99.90;;;;;;4953437;28;20059;-52
2023/06/30 09:54:51;;;;;;;6.15;1.40;;;21.40;99.90;;;;;;4953590;28;20040;-52
2023/06/30 09:57:16;;;;;;;5.30;1.30;;;21.50;99.90;;;;;;4953868;28;20046;-50
2023/06/30 09:59:42;;;;;;;3.25;1.00;;;21.70;99.90;;;;;;4957341;28;20090;-49
2023/06/30 10:02:10;;;;;;;5.97;1.35;;;21.50;99.90;;;;;;4953918;28;20051;-47
2023/06/30 10:04:36;;;;;;;6.18;1.20;;;21.30;99.90;;;;;;4954410;28;20051;-49
2023/06/30 10:07:03;;;;;;;6.45;1.38;;;21.10;99.90;;;;;;4953774;28;21391;-51
2023/06/30 10:09:30;;;;;;;5.03;1.20;;;20.90;99.90;;;;;;4933468;28;20050;-51
2023/06/30 10:11:57;;;;;;;4.45;1.10;;;20.80;99.90;;;;;;4954108;28;20134;-50
2023/06/30 10:14:28;;;;;;;7.00;1.33;;;20.90;99.90;;;;;;4936056;28;20035;-49
2023/06/30 10:16:59;;;;;;;4.65;1.30;;;21.00;99.90;;;;;;4953641;28;20043;-50
2023/06/30 10:19:25;;;;;;;4.28;1.05;;;21.10;99.90;;;;;;4953108;28;20718;-49
2023/06/30 10:21:52;;;;;;;3.67;1.20;;;21.40;99.90;;;;;;4939904;28;20043;-51
2023/06/30 10:24:23;;;;;;;4.85;1.77;;;21.50;99.90;;;;;;4944312;28;20050;-51
2023/06/30 10:26:50;;;;;;;4.82;1.27;;;21.70;99.90;;;;;;4941457;28;20039;-50
2023/06/30 10:29:16;;;;;;;7.20;1.40;;;21.80;99.90;;;;;;4945196;28;20126;-51
2023/06/30 10:31:42;;;;;;;4.18;1.10;;;21.90;99.80;;;;;;4944189;28;20039;-51
2023/06/30 10:34:09;;;;;;;5.30;1.20;;;21.90;99.50;;;;;;4940144;28;20471;-51
2023/06/30 10:36:36;;;;;;;5.88;1.20;;;21.90;99.70;;;;;;4923866;29;20037;-48
2023/06/30 10:39:02;;;;;;;3.80;1.20;;;21.80;99.70;;;;;;4911252;28;20387;-51
2023/06/30 10:41:28;;;;;;;5.32;1.10;;;21.60;99.80;;;;;;4936905;28;20374;-49
2023/06/30 10:44:03;;;;;;;4.07;1.00;;;21.50;99.90;;;;;;4943382;28;20039;-51
2023/06/30 10:46:47;;;;;;;6.25;1.50;;;21.40;99.90;;;;;;4940893;28;20115;-50
2023/06/30 10:49:25;;;;;;;;;;;21.40;99.90;;;;;;4943180;28;20035;-51
2023/06/30 10:51:52;;;;;;;4.28;1.42;;;21.30;99.90;;;;;;4942230;28;19927;-52
2023/06/30 10:54:24;;;;;;;4.97;1.33;;;21.20;99.90;;;;;;4942461;28;20662;-48
2023/06/30 10:56:51;;;;;;;4.95;1.75;;;21.00;99.90;;;;;;4943678;28;20043;-49
2023/06/30 10:59:24;;;;;;;8.13;1.40;;;21.00;99.90;;;;;;4941355;28;20065;-50
2023/06/30 11:02:12;;;;;;;6.18;1.33;;;21.00;99.90;;;;;;4919766;28;20394;-51
2023/06/30 11:04:39;;;;;;;5.97;1.55;;;21.20;99.90;;;;;;4943250;28;20511;-50
2023/06/30 11:07:07;;;;;;;9.68;2.00;;;21.20;99.90;;;;;;4940007;28;20367;-50
2023/06/30 11:09:48;;;;;;;4.35;1.30;;;21.30;99.90;;;;;;4925522;28;20047;-51
2023/06/30 11:12:23;;;;;;;7.82;1.50;;;21.30;99.90;;;;;;4926159;28;20086;-51
2023/06/30 11:14:57;;;;;;;6.10;1.38;;;21.10;99.90;;;;;;4908446;28;20031;-51
2023/06/30 11:17:24;;;;;;;5.90;1.50;;;21.00;99.90;;;;;;4939367;28;20194;-53
2023/06/30 11:20:13;;;;;;;5.50;1.45;;;21.10;99.90;;;;;;4941541;28;20110;-49
2023/06/30 11:22:40;;;;;;;5.38;1.00;;;21.40;99.90;;;;;;4940780;28;20039;-50
2023/06/30 11:25:13;;;;;;;9.35;1.73;;;21.70;99.90;;;;;;4924707;29;20079;-50
2023/06/30 11:27:40;;;;;;;12.07;2.47;;;22.00;99.90;;;;;;4939994;28;20043;-50
2023/06/30 11:30:07;;;;;;;3.75;1.10;;;22.20;99.90;;;;;;4938791;28;20771;-52
2023/06/30 11:32:35;;;;;;;3.83;0.95;;;22.30;99.90;;;;;;4941142;28;20039;-49
2023/06/30 11:35:07;;;;;;;8.27;1.58;;;22.60;99.90;;;;;;4928627;29;20042;-50
2023/06/30 11:37:36;;;;;;;3.50;1.00;;;22.90;99.90;;;;;;4945195;28;20031;-51
2023/06/30 11:40:03;;;;;;;5.80;1.25;;;23.00;99.90;;;;;;4927773;28;20476;-47
2023/06/30 11:42:29;;;;;;;5.95;1.17;;;22.90;99.70;;;;;;4947662;28;20091;-51
2023/06/30 11:44:55;;;;;;;5.22;1.20;;;22.70;99.20;;;;;;4947191;28;20062;-52
2023/06/30 11:47:21;;;;;;;5.68;1.10;;;22.70;99.30;;;;;;4946591;28;20122;-53
2023/06/30 11:49:48;;;;;;;5.40;1.20;;;22.70;98.80;;;;;;4945536;28;20411;-53
2023/06/30 11:52:15;;;;;;;4.80;1.10;;;22.80;99.10;;;;;;4945194;28;20050;-49
2023/06/30 11:54:41;;;;;;;5.97;1.60;;;23.00;99.20;;;;;;4943853;28;20043;-51
2023/06/30 11:57:08;;;;;;;7.43;1.40;;;23.20;98.90;;;;;;4946193;28;20038;-49
2023/06/30 11:59:34;;;;;;;4.97;1.30;;;23.40;98.70;;;;;;4944197;28;20050;-52
2023/06/30 12:02:02;;;;;;;5.72;1.60;;;23.50;98.90;;;;;;4945704;28;20063;-52
2023/06/30 12:04:33;;;;;;;4.38;1.50;;;23.50;98.10;;;;;;4943212;28;20392;-50
2023/06/30 12:07:02;;;;;;;7.05;1.58;;;23.30;98.00;;;;;;4945897;28;20126;-52
2023/06/30 12:09:29;;;;;;;5.63;1.42;;;23.00;98.20;;;;;;4942523;28;20043;-48
2023/06/30 12:11:56;;;;;;;4.80;1.48;;;22.90;98.30;;;;;;4945880;28;20081;-51
2023/06/30 12:14:25;;;;;;;5.40;1.52;;;23.00;98.90;;;;;;4946257;28;20081;-49
2023/06/30 12:16:54;;;;;;;6.30;1.40;;;23.00;99.20;;;;;;4944562;28;20035;-52
2023/06/30 12:19:28;;;;;;;5.72;1.17;;;23.20;98.70;;;;;;4945051;28;20046;-53
2023/06/30 12:21:59;;;;;;;5.88;1.50;;;23.50;98.00;;;;;;4945939;28;20085;-52
2023/06/30 12:24:30;;;;;;;4.25;1.20;;;23.70;96.60;;;;;;4944501;28;20050;-50
2023/06/30 12:26:56;;;;;;;4.65;1.40;;;23.70;97.30;;;;;;4944890;28;20046;-53
2023/06/30 12:29:22;;;;;;;3.33;1.10;;;23.90;97.00;;;;;;4927489;28;20051;-52
2023/06/30 12:31:48;;;;;;;4.63;1.30;;;24.10;96.90;;;;;;4945072;28;20047;-54
2023/06/30 12:34:31;;;;;;;3.63;1.35;;;24.30;96.80;;;;;;4944438;28;20039;-53
2023/06/30 12:36:57;;;;;;;5.32;1.20;;;24.50;96.20;;;;;;4946804;28;20058;-50
2023/06/30 12:39:23;;;;;;;4.22;1.20;;;24.60;96.60;;;;;;4946507;28;20048;-49
2023/06/30 12:41:49;;;;;;;3.92;1.02;;;24.60;96.40;;;;;;4948974;28;20679;-54
2023/06/30 12:44:15;;;;;;;4.10;1.35;;;24.70;96.80;;;;;;4946818;28;20054;-48
2023/06/30 12:46:41;;;;;;;4.85;1.00;;;24.90;96.80;;;;;;4948334;28;20054;-50